sensor_id;sensor_type;location;lat;lon;timestamp;P1;durP1;ratioP1;P2;durP2;ratioP2
13611;SDS011;6877;51.436;6.774;2023-11-21T00:00:58;24.17;;;8.68;;
13611;SDS011;6877;51.436;6.774;2023-11-21T00:03:24;17.02;;;9.70;;
13611;SDS011;6877;51.436;6.774;2023-11-21T00:05:59;24.38;;;9.95;;
13611;SDS011;6877;51.436;6.774;2023-11-21T00:08:27;17.90;;;10.35;;
13611;SDS011;6877;51.436;6.774;2023-11-21T00:10:54;28.10;;;10.68;;
13611;SDS011;6877;51.436;6.774;2023-11-21T00:13:21;26.73;;;11.32;;
13611;SDS011;6877;51.436;6.774;2023-11-21T00:15:47;26.98;;;12.85;;
13611;SDS011;6877;51.436;6.774;2023-11-21T00:18:14;19.15;;;10.55;;
13611;SDS011;6877;51.436;6.774;2023-11-21T00:20:40;19.08;;;8.50;;
13611;SDS011;6877;51.436;6.774;2023-11-21T00:23:12;15.30;;;8.15;;
13611;SDS011;6877;51.436;6.774;2023-11-21T00:25:43;20.02;;;9.90;;
13611;SDS011;6877;51.436;6.774;2023-11-21T00:28:15;20.40;;;10.90;;
13611;SDS011;6877;51.436;6.774;2023-11-21T00:30:41;20.73;;;9.90;;
13611;SDS011;6877;51.436;6.774;2023-11-21T00:33:08;18.50;;;9.07;;
13611;SDS011;6877;51.436;6.774;2023-11-21T00:35:34;18.90;;;9.35;;
13611;SDS011;6877;51.436;6.774;2023-11-21T00:38:01;19.95;;;8.77;;
13611;SDS011;6877;51.436;6.774;2023-11-21T00:40:29;21.77;;;9.02;;
13611;SDS011;6877;51.436;6.774;2023-11-21T00:42:56;15.60;;;7.90;;
13611;SDS011;6877;51.436;6.774;2023-11-21T00:45:22;16.77;;;8.10;;
13611;SDS011;6877;51.436;6.774;2023-11-21T00:47:49;15.25;;;8.57;;
13611;SDS011;6877;51.436;6.774;2023-11-21T00:50:15;12.60;;;7.40;;
13611;SDS011;6877;51.436;6.774;2023-11-21T00:52:42;17.17;;;7.45;;
13611;SDS011;6877;51.436;6.774;2023-11-21T00:55:09;11.70;;;7.32;;
13611;SDS011;6877;51.436;6.774;2023-11-21T00:57:36;9.88;;;6.03;;
13611;SDS011;6877;51.436;6.774;2023-11-21T01:00:03;15.23;;;6.63;;
13611;SDS011;6877;51.436;6.774;2023-11-21T01:02:44;14.63;;;6.53;;
13611;SDS011;6877;51.436;6.774;2023-11-21T01:05:11;10.90;;;6.47;;
13611;SDS011;6877;51.436;6.774;2023-11-21T01:07:38;9.65;;;6.25;;
13611;SDS011;6877;51.436;6.774;2023-11-21T01:10:09;8.70;;;5.38;;
13611;SDS011;6877;51.436;6.774;2023-11-21T01:12:36;6.57;;;4.88;;
13611;SDS011;6877;51.436;6.774;2023-11-21T01:15:04;10.93;;;6.00;;
13611;SDS011;6877;51.436;6.774;2023-11-21T01:17:38;9.57;;;5.90;;
13611;SDS011;6877;51.436;6.774;2023-11-21T01:20:05;8.05;;;4.90;;
13611;SDS011;6877;51.436;6.774;2023-11-21T01:22:38;10.43;;;5.65;;
13611;SDS011;6877;51.436;6.774;2023-11-21T01:25:05;10.70;;;5.38;;
13611;SDS011;6877;51.436;6.774;2023-11-21T01:27:33;14.48;;;6.72;;
13611;SDS011;6877;51.436;6.774;2023-11-21T01:30:06;8.27;;;5.53;;
13611;SDS011;6877;51.436;6.774;2023-11-21T01:32:36;13.85;;;8.02;;
13611;SDS011;6877;51.436;6.774;2023-11-21T01:35:03;15.50;;;8.77;;
13611;SDS011;6877;51.436;6.774;2023-11-21T01:37:32;12.80;;;6.93;;
13611;SDS011;6877;51.436;6.774;2023-11-21T01:39:59;11.00;;;5.90;;
13611;SDS011;6877;51.436;6.774;2023-11-21T01:42:27;11.93;;;6.20;;
13611;SDS011;6877;51.436;6.774;2023-11-21T01:45:00;9.88;;;5.50;;
13611;SDS011;6877;51.436;6.774;2023-11-21T01:47:29;9.35;;;5.90;;
13611;SDS011;6877;51.436;6.774;2023-11-21T01:49:56;6.93;;;5.50;;
13611;SDS011;6877;51.436;6.774;2023-11-21T01:52:22;18.63;;;9.25;;
13611;SDS011;6877;51.436;6.774;2023-11-21T01:54:49;13.18;;;7.35;;
13611;SDS011;6877;51.436;6.774;2023-11-21T01:57:21;10.75;;;6.32;;
13611;SDS011;6877;51.436;6.774;2023-11-21T01:59:47;10.90;;;6.50;;
13611;SDS011;6877;51.436;6.774;2023-11-21T02:02:16;8.88;;;6.60;;
13611;SDS011;6877;51.436;6.774;2023-11-21T02:04:42;10.32;;;5.75;;
13611;SDS011;6877;51.436;6.774;2023-11-21T02:07:09;15.85;;;7.60;;
13611;SDS011;6877;51.436;6.774;2023-11-21T02:09:36;10.48;;;5.93;;
13611;SDS011;6877;51.436;6.774;2023-11-21T02:12:04;16.30;;;8.82;;
13611;SDS011;6877;51.436;6.774;2023-11-21T02:14:31;11.10;;;6.00;;
13611;SDS011;6877;51.436;6.774;2023-11-21T02:16:58;11.98;;;7.00;;
13611;SDS011;6877;51.436;6.774;2023-11-21T02:19:24;18.60;;;8.52;;
13611;SDS011;6877;51.436;6.774;2023-11-21T02:21:59;20.40;;;9.18;;
13611;SDS011;6877;51.436;6.774;2023-11-21T02:24:29;26.80;;;10.23;;
13611;SDS011;6877;51.436;6.774;2023-11-21T02:26:56;18.52;;;8.35;;
13611;SDS011;6877;51.436;6.774;2023-11-21T02:29:27;13.85;;;8.60;;
13611;SDS011;6877;51.436;6.774;2023-11-21T02:31:54;20.98;;;9.00;;
13611;SDS011;6877;51.436;6.774;2023-11-21T02:34:26;17.60;;;8.63;;
13611;SDS011;6877;51.436;6.774;2023-11-21T02:36:53;20.10;;;10.07;;
13611;SDS011;6877;51.436;6.774;2023-11-21T02:39:19;20.67;;;9.27;;
13611;SDS011;6877;51.436;6.774;2023-11-21T02:41:48;18.23;;;9.32;;
13611;SDS011;6877;51.436;6.774;2023-11-21T02:44:15;23.67;;;10.63;;
13611;SDS011;6877;51.436;6.774;2023-11-21T02:46:42;25.10;;;11.00;;
13611;SDS011;6877;51.436;6.774;2023-11-21T02:49:08;22.65;;;11.70;;
13611;SDS011;6877;51.436;6.774;2023-11-21T02:51:41;24.95;;;11.32;;
13611;SDS011;6877;51.436;6.774;2023-11-21T02:54:08;23.45;;;11.93;;
13611;SDS011;6877;51.436;6.774;2023-11-21T02:56:39;36.35;;;13.25;;
13611;SDS011;6877;51.436;6.774;2023-11-21T02:59:11;25.10;;;11.98;;
13611;SDS011;6877;51.436;6.774;2023-11-21T03:01:37;28.25;;;13.27;;
13611;SDS011;6877;51.436;6.774;2023-11-21T03:04:04;25.70;;;11.63;;
13611;SDS011;6877;51.436;6.774;2023-11-21T03:06:36;26.63;;;13.30;;
13611;SDS011;6877;51.436;6.774;2023-11-21T03:09:02;29.02;;;13.88;;
13611;SDS011;6877;51.436;6.774;2023-11-21T03:11:29;26.42;;;12.45;;
13611;SDS011;6877;51.436;6.774;2023-11-21T03:13:56;31.13;;;13.63;;
13611;SDS011;6877;51.436;6.774;2023-11-21T03:16:23;24.75;;;10.82;;
13611;SDS011;6877;51.436;6.774;2023-11-21T03:18:54;24.40;;;11.95;;
13611;SDS011;6877;51.436;6.774;2023-11-21T03:21:21;23.88;;;11.93;;
13611;SDS011;6877;51.436;6.774;2023-11-21T03:23:47;31.85;;;14.13;;
13611;SDS011;6877;51.436;6.774;2023-11-21T03:26:14;26.95;;;13.05;;
13611;SDS011;6877;51.436;6.774;2023-11-21T03:28:40;25.13;;;12.13;;
13611;SDS011;6877;51.436;6.774;2023-11-21T03:31:07;26.75;;;13.90;;
13611;SDS011;6877;51.436;6.774;2023-11-21T03:33:35;19.88;;;11.20;;
13611;SDS011;6877;51.436;6.774;2023-11-21T03:36:01;22.55;;;11.00;;
13611;SDS011;6877;51.436;6.774;2023-11-21T03:38:34;21.35;;;11.80;;
13611;SDS011;6877;51.436;6.774;2023-11-21T03:41:01;22.15;;;11.73;;
13611;SDS011;6877;51.436;6.774;2023-11-21T03:43:33;37.13;;;15.48;;
13611;SDS011;6877;51.436;6.774;2023-11-21T03:46:05;31.35;;;14.48;;
13611;SDS011;6877;51.436;6.774;2023-11-21T03:48:31;33.42;;;15.15;;
13611;SDS011;6877;51.436;6.774;2023-11-21T03:50:59;21.92;;;10.77;;
13611;SDS011;6877;51.436;6.774;2023-11-21T03:53:25;22.50;;;10.95;;
13611;SDS011;6877;51.436;6.774;2023-11-21T03:55:52;23.33;;;11.57;;
13611;SDS011;6877;51.436;6.774;2023-11-21T03:58:23;31.40;;;12.70;;
13611;SDS011;6877;51.436;6.774;2023-11-21T04:00:50;21.27;;;11.57;;
13611;SDS011;6877;51.436;6.774;2023-11-21T04:03:16;26.77;;;13.07;;
13611;SDS011;6877;51.436;6.774;2023-11-21T04:05:43;22.77;;;11.65;;
13611;SDS011;6877;51.436;6.774;2023-11-21T04:08:09;25.27;;;12.45;;
13611;SDS011;6877;51.436;6.774;2023-11-21T04:10:41;19.80;;;11.27;;
13611;SDS011;6877;51.436;6.774;2023-11-21T04:13:13;23.77;;;10.73;;
13611;SDS011;6877;51.436;6.774;2023-11-21T04:15:44;24.30;;;10.65;;
13611;SDS011;6877;51.436;6.774;2023-11-21T04:18:11;23.55;;;10.98;;
13611;SDS011;6877;51.436;6.774;2023-11-21T04:20:42;21.13;;;10.63;;
13611;SDS011;6877;51.436;6.774;2023-11-21T04:23:09;22.85;;;9.32;;
13611;SDS011;6877;51.436;6.774;2023-11-21T04:25:41;29.73;;;12.98;;
13611;SDS011;6877;51.436;6.774;2023-11-21T04:28:07;27.13;;;11.43;;
13611;SDS011;6877;51.436;6.774;2023-11-21T04:30:34;20.15;;;10.35;;
13611;SDS011;6877;51.436;6.774;2023-11-21T04:33:01;35.05;;;15.70;;
13611;SDS011;6877;51.436;6.774;2023-11-21T04:35:29;24.73;;;12.43;;
13611;SDS011;6877;51.436;6.774;2023-11-21T04:37:55;29.02;;;11.38;;
13611;SDS011;6877;51.436;6.774;2023-11-21T04:40:23;28.65;;;12.77;;
13611;SDS011;6877;51.436;6.774;2023-11-21T04:42:54;27.08;;;12.63;;
13611;SDS011;6877;51.436;6.774;2023-11-21T04:45:26;22.55;;;12.50;;
13611;SDS011;6877;51.436;6.774;2023-11-21T04:47:53;28.83;;;13.05;;
13611;SDS011;6877;51.436;6.774;2023-11-21T04:50:19;28.48;;;11.30;;
13611;SDS011;6877;51.436;6.774;2023-11-21T04:52:46;21.95;;;11.40;;
13611;SDS011;6877;51.436;6.774;2023-11-21T04:55:14;23.88;;;10.75;;
13611;SDS011;6877;51.436;6.774;2023-11-21T04:57:41;24.85;;;11.40;;
13611;SDS011;6877;51.436;6.774;2023-11-21T05:00:10;30.15;;;13.68;;
13611;SDS011;6877;51.436;6.774;2023-11-21T05:02:39;36.65;;;16.27;;
13611;SDS011;6877;51.436;6.774;2023-11-21T05:05:07;31.02;;;14.05;;
13611;SDS011;6877;51.436;6.774;2023-11-21T05:07:36;27.17;;;13.40;;
13611;SDS011;6877;51.436;6.774;2023-11-21T05:10:04;26.70;;;13.10;;
13611;SDS011;6877;51.436;6.774;2023-11-21T05:12:37;27.73;;;12.32;;
13611;SDS011;6877;51.436;6.774;2023-11-21T05:15:04;27.98;;;11.35;;
13611;SDS011;6877;51.436;6.774;2023-11-21T05:17:34;28.52;;;12.63;;
13611;SDS011;6877;51.436;6.774;2023-11-21T05:20:04;26.35;;;13.70;;
13611;SDS011;6877;51.436;6.774;2023-11-21T05:22:34;30.17;;;11.90;;
13611;SDS011;6877;51.436;6.774;2023-11-21T05:25:06;31.48;;;12.98;;
13611;SDS011;6877;51.436;6.774;2023-11-21T05:27:39;35.53;;;15.48;;
13611;SDS011;6877;51.436;6.774;2023-11-21T05:30:05;33.78;;;14.95;;
13611;SDS011;6877;51.436;6.774;2023-11-21T05:32:32;30.83;;;14.30;;
13611;SDS011;6877;51.436;6.774;2023-11-21T05:34:59;39.83;;;16.42;;
13611;SDS011;6877;51.436;6.774;2023-11-21T05:37:26;28.75;;;13.32;;
13611;SDS011;6877;51.436;6.774;2023-11-21T05:39:53;32.38;;;14.63;;
13611;SDS011;6877;51.436;6.774;2023-11-21T05:42:22;30.73;;;13.13;;
13611;SDS011;6877;51.436;6.774;2023-11-21T05:44:49;27.95;;;12.50;;
13611;SDS011;6877;51.436;6.774;2023-11-21T05:47:16;29.77;;;15.00;;
13611;SDS011;6877;51.436;6.774;2023-11-21T05:49:43;31.27;;;14.10;;
13611;SDS011;6877;51.436;6.774;2023-11-21T05:52:11;36.17;;;15.18;;
13611;SDS011;6877;51.436;6.774;2023-11-21T05:54:37;40.58;;;16.35;;
13611;SDS011;6877;51.436;6.774;2023-11-21T05:57:04;47.03;;;18.58;;
13611;SDS011;6877;51.436;6.774;2023-11-21T05:59:35;39.60;;;18.80;;
13611;SDS011;6877;51.436;6.774;2023-11-21T06:02:02;43.10;;;18.45;;
13611;SDS011;6877;51.436;6.774;2023-11-21T06:04:29;37.22;;;18.42;;
13611;SDS011;6877;51.436;6.774;2023-11-21T06:07:00;42.83;;;18.02;;
13611;SDS011;6877;51.436;6.774;2023-11-21T06:09:32;40.40;;;15.38;;
13611;SDS011;6877;51.436;6.774;2023-11-21T06:11:59;44.88;;;18.65;;
13611;SDS011;6877;51.436;6.774;2023-11-21T06:14:30;46.47;;;17.65;;
13611;SDS011;6877;51.436;6.774;2023-11-21T06:16:59;44.47;;;17.70;;
13611;SDS011;6877;51.436;6.774;2023-11-21T06:19:25;44.40;;;17.35;;
13611;SDS011;6877;51.436;6.774;2023-11-21T06:21:52;40.95;;;18.27;;
13611;SDS011;6877;51.436;6.774;2023-11-21T06:24:23;41.33;;;19.00;;
13611;SDS011;6877;51.436;6.774;2023-11-21T06:26:55;43.05;;;16.98;;
13611;SDS011;6877;51.436;6.774;2023-11-21T06:29:21;50.30;;;18.63;;
13611;SDS011;6877;51.436;6.774;2023-11-21T06:31:48;40.05;;;17.63;;
13611;SDS011;6877;51.436;6.774;2023-11-21T06:34:20;45.90;;;18.08;;
13611;SDS011;6877;51.436;6.774;2023-11-21T06:36:52;44.13;;;17.70;;
13611;SDS011;6877;51.436;6.774;2023-11-21T06:39:23;46.05;;;18.08;;
13611;SDS011;6877;51.436;6.774;2023-11-21T06:41:50;47.08;;;17.83;;
13611;SDS011;6877;51.436;6.774;2023-11-21T06:44:17;40.15;;;16.70;;
13611;SDS011;6877;51.436;6.774;2023-11-21T06:46:48;43.13;;;17.70;;
13611;SDS011;6877;51.436;6.774;2023-11-21T06:49:15;41.97;;;18.10;;
13611;SDS011;6877;51.436;6.774;2023-11-21T06:51:42;48.85;;;19.60;;
13611;SDS011;6877;51.436;6.774;2023-11-21T06:54:13;41.92;;;18.45;;
13611;SDS011;6877;51.436;6.774;2023-11-21T06:56:45;48.60;;;19.77;;
13611;SDS011;6877;51.436;6.774;2023-11-21T06:59:13;40.53;;;16.90;;
13611;SDS011;6877;51.436;6.774;2023-11-21T07:01:39;45.65;;;17.80;;
13611;SDS011;6877;51.436;6.774;2023-11-21T07:04:07;49.53;;;19.13;;
13611;SDS011;6877;51.436;6.774;2023-11-21T07:06:40;40.05;;;16.58;;
13611;SDS011;6877;51.436;6.774;2023-11-21T07:09:11;49.65;;;18.67;;
13611;SDS011;6877;51.436;6.774;2023-11-21T07:11:42;52.25;;;21.02;;
13611;SDS011;6877;51.436;6.774;2023-11-21T07:14:09;51.20;;;19.33;;
13611;SDS011;6877;51.436;6.774;2023-11-21T07:16:40;50.33;;;19.52;;
13611;SDS011;6877;51.436;6.774;2023-11-21T07:19:12;50.13;;;17.63;;
13611;SDS011;6877;51.436;6.774;2023-11-21T07:21:43;58.63;;;20.48;;
13611;SDS011;6877;51.436;6.774;2023-11-21T07:24:10;38.95;;;16.52;;
13611;SDS011;6877;51.436;6.774;2023-11-21T07:26:42;50.08;;;19.30;;
13611;SDS011;6877;51.436;6.774;2023-11-21T07:29:14;53.38;;;19.42;;
13611;SDS011;6877;51.436;6.774;2023-11-21T07:31:40;38.72;;;17.83;;
13611;SDS011;6877;51.436;6.774;2023-11-21T07:34:09;50.92;;;18.50;;
13611;SDS011;6877;51.436;6.774;2023-11-21T07:36:38;54.25;;;20.05;;
13611;SDS011;6877;51.436;6.774;2023-11-21T07:39:04;61.35;;;20.33;;
13611;SDS011;6877;51.436;6.774;2023-11-21T07:41:37;51.92;;;21.33;;
13611;SDS011;6877;51.436;6.774;2023-11-21T07:44:11;56.17;;;20.90;;
13611;SDS011;6877;51.436;6.774;2023-11-21T07:46:42;52.55;;;19.38;;
13611;SDS011;6877;51.436;6.774;2023-11-21T07:49:09;53.00;;;21.73;;
13611;SDS011;6877;51.436;6.774;2023-11-21T07:51:35;54.00;;;22.30;;
13611;SDS011;6877;51.436;6.774;2023-11-21T07:54:07;47.17;;;21.67;;
13611;SDS011;6877;51.436;6.774;2023-11-21T07:56:38;32.30;;;14.77;;
13611;SDS011;6877;51.436;6.774;2023-11-21T07:59:05;43.53;;;16.00;;
13611;SDS011;6877;51.436;6.774;2023-11-21T08:01:31;54.45;;;20.42;;
13611;SDS011;6877;51.436;6.774;2023-11-21T08:03:59;57.72;;;21.70;;
13611;SDS011;6877;51.436;6.774;2023-11-21T08:06:29;43.78;;;19.50;;
13611;SDS011;6877;51.436;6.774;2023-11-21T08:09:02;50.28;;;20.38;;
13611;SDS011;6877;51.436;6.774;2023-11-21T08:11:33;48.65;;;18.23;;
13611;SDS011;6877;51.436;6.774;2023-11-21T08:14:00;47.10;;;18.83;;
13611;SDS011;6877;51.436;6.774;2023-11-21T08:16:26;48.85;;;19.25;;
13611;SDS011;6877;51.436;6.774;2023-11-21T08:18:53;53.67;;;20.42;;
13611;SDS011;6877;51.436;6.774;2023-11-21T08:21:25;46.33;;;19.63;;
13611;SDS011;6877;51.436;6.774;2023-11-21T08:23:55;41.38;;;19.02;;
13611;SDS011;6877;51.436;6.774;2023-11-21T08:26:21;34.47;;;15.48;;
13611;SDS011;6877;51.436;6.774;2023-11-21T08:28:49;46.38;;;19.20;;
13611;SDS011;6877;51.436;6.774;2023-11-21T08:31:15;58.47;;;20.48;;
13611;SDS011;6877;51.436;6.774;2023-11-21T08:33:42;44.03;;;18.40;;
13611;SDS011;6877;51.436;6.774;2023-11-21T08:36:13;50.60;;;18.48;;
13611;SDS011;6877;51.436;6.774;2023-11-21T08:38:45;49.67;;;19.45;;
13611;SDS011;6877;51.436;6.774;2023-11-21T08:41:11;48.40;;;19.08;;
13611;SDS011;6877;51.436;6.774;2023-11-21T08:43:38;57.20;;;20.27;;
13611;SDS011;6877;51.436;6.774;2023-11-21T08:46:08;54.25;;;19.98;;
13611;SDS011;6877;51.436;6.774;2023-11-21T08:48:35;44.90;;;18.20;;
13611;SDS011;6877;51.436;6.774;2023-11-21T08:51:02;50.60;;;19.40;;
13611;SDS011;6877;51.436;6.774;2023-11-21T08:53:30;43.38;;;18.35;;
13611;SDS011;6877;51.436;6.774;2023-11-21T08:55:57;44.42;;;18.80;;
13611;SDS011;6877;51.436;6.774;2023-11-21T08:58:23;49.95;;;17.90;;
13611;SDS011;6877;51.436;6.774;2023-11-21T09:00:55;42.55;;;20.48;;
13611;SDS011;6877;51.436;6.774;2023-11-21T09:03:26;52.10;;;18.30;;
13611;SDS011;6877;51.436;6.774;2023-11-21T09:05:54;38.63;;;15.38;;
13611;SDS011;6877;51.436;6.774;2023-11-21T09:08:24;37.83;;;17.35;;
13611;SDS011;6877;51.436;6.774;2023-11-21T09:10:56;46.30;;;19.38;;
13611;SDS011;6877;51.436;6.774;2023-11-21T09:13:23;46.63;;;20.67;;
13611;SDS011;6877;51.436;6.774;2023-11-21T09:15:51;36.08;;;15.90;;
13611;SDS011;6877;51.436;6.774;2023-11-21T09:18:17;48.28;;;18.58;;
13611;SDS011;6877;51.436;6.774;2023-11-21T09:20:44;40.47;;;19.65;;
13611;SDS011;6877;51.436;6.774;2023-11-21T09:23:10;42.72;;;17.40;;
13611;SDS011;6877;51.436;6.774;2023-11-21T09:25:37;45.47;;;20.27;;
13611;SDS011;6877;51.436;6.774;2023-11-21T09:28:05;38.55;;;18.30;;
13611;SDS011;6877;51.436;6.774;2023-11-21T09:30:35;54.85;;;20.73;;
13611;SDS011;6877;51.436;6.774;2023-11-21T09:33:06;45.35;;;18.73;;
13611;SDS011;6877;51.436;6.774;2023-11-21T09:35:41;51.97;;;21.23;;
13611;SDS011;6877;51.436;6.774;2023-11-21T09:38:10;42.78;;;18.27;;
13611;SDS011;6877;51.436;6.774;2023-11-21T09:40:37;47.63;;;20.42;;
13611;SDS011;6877;51.436;6.774;2023-11-21T09:43:15;52.15;;;22.20;;
13611;SDS011;6877;51.436;6.774;2023-11-21T09:45:45;59.72;;;20.60;;
13611;SDS011;6877;51.436;6.774;2023-11-21T09:48:21;57.45;;;25.35;;
13611;SDS011;6877;51.436;6.774;2023-11-21T09:50:51;54.55;;;23.00;;
13611;SDS011;6877;51.436;6.774;2023-11-21T09:53:20;71.78;;;27.80;;
13611;SDS011;6877;51.436;6.774;2023-11-21T09:55:49;81.43;;;26.15;;
13611;SDS011;6877;51.436;6.774;2023-11-21T09:58:22;69.72;;;27.35;;
13611;SDS011;6877;51.436;6.774;2023-11-21T10:00:52;75.93;;;27.70;;
13611;SDS011;6877;51.436;6.774;2023-11-21T10:03:25;77.85;;;28.70;;
13611;SDS011;6877;51.436;6.774;2023-11-21T10:05:56;61.20;;;25.10;;
13611;SDS011;6877;51.436;6.774;2023-11-21T10:08:26;74.45;;;28.35;;
13611;SDS011;6877;51.436;6.774;2023-11-21T10:10:59;70.05;;;26.80;;
13611;SDS011;6877;51.436;6.774;2023-11-21T10:13:26;74.25;;;26.17;;
13611;SDS011;6877;51.436;6.774;2023-11-21T10:16:01;68.75;;;26.35;;
13611;SDS011;6877;51.436;6.774;2023-11-21T10:18:36;61.25;;;23.52;;
13611;SDS011;6877;51.436;6.774;2023-11-21T10:21:06;55.08;;;23.15;;
13611;SDS011;6877;51.436;6.774;2023-11-21T10:23:35;68.88;;;27.55;;
13611;SDS011;6877;51.436;6.774;2023-11-21T10:26:06;72.75;;;30.80;;
13611;SDS011;6877;51.436;6.774;2023-11-21T10:28:55;68.70;;;27.90;;
13611;SDS011;6877;51.436;6.774;2023-11-21T10:31:31;64.03;;;26.00;;
13611;SDS011;6877;51.436;6.774;2023-11-21T10:34:14;70.22;;;32.58;;
13611;SDS011;6877;51.436;6.774;2023-11-21T10:36:45;82.93;;;28.50;;
13611;SDS011;6877;51.436;6.774;2023-11-21T10:39:21;55.67;;;23.55;;
13611;SDS011;6877;51.436;6.774;2023-11-21T10:41:49;56.67;;;25.98;;
13611;SDS011;6877;51.436;6.774;2023-11-21T10:44:17;60.05;;;24.80;;
13611;SDS011;6877;51.436;6.774;2023-11-21T10:46:53;60.28;;;24.92;;
13611;SDS011;6877;51.436;6.774;2023-11-21T10:49:27;60.40;;;23.73;;
13611;SDS011;6877;51.436;6.774;2023-11-21T10:51:54;64.30;;;25.90;;
13611;SDS011;6877;51.436;6.774;2023-11-21T10:54:26;64.13;;;26.08;;
13611;SDS011;6877;51.436;6.774;2023-11-21T10:56:56;65.25;;;25.67;;
13611;SDS011;6877;51.436;6.774;2023-11-21T10:59:29;50.20;;;23.38;;
13611;SDS011;6877;51.436;6.774;2023-11-21T11:01:57;62.33;;;25.02;;
13611;SDS011;6877;51.436;6.774;2023-11-21T11:04:29;62.40;;;25.60;;
13611;SDS011;6877;51.436;6.774;2023-11-21T11:06:57;65.35;;;26.60;;
13611;SDS011;6877;51.436;6.774;2023-11-21T11:09:30;62.05;;;24.67;;
13611;SDS011;6877;51.436;6.774;2023-11-21T11:12:01;54.05;;;24.83;;
13611;SDS011;6877;51.436;6.774;2023-11-21T11:14:33;66.88;;;27.00;;
13611;SDS011;6877;51.436;6.774;2023-11-21T11:17:04;84.45;;;31.35;;
13611;SDS011;6877;51.436;6.774;2023-11-21T11:19:39;76.93;;;28.60;;
13611;SDS011;6877;51.436;6.774;2023-11-21T11:30:11;79.43;;;31.67;;
13611;SDS011;6877;51.436;6.774;2023-11-21T11:38:31;64.25;;;26.75;;
13611;SDS011;6877;51.436;6.774;2023-11-21T11:41:05;75.20;;;29.23;;
13611;SDS011;6877;51.436;6.774;2023-11-21T11:43:33;58.42;;;25.23;;
13611;SDS011;6877;51.436;6.774;2023-11-21T11:46:11;70.82;;;26.38;;
13611;SDS011;6877;51.436;6.774;2023-11-21T11:48:39;71.97;;;27.15;;
13611;SDS011;6877;51.436;6.774;2023-11-21T11:51:10;68.43;;;29.92;;
13611;SDS011;6877;51.436;6.774;2023-11-21T11:53:40;74.13;;;30.42;;
13611;SDS011;6877;51.436;6.774;2023-11-21T11:58:50;68.40;;;28.10;;
13611;SDS011;6877;51.436;6.774;2023-11-21T12:01:20;63.70;;;28.83;;
13611;SDS011;6877;51.436;6.774;2023-11-21T12:07:05;57.28;;;27.90;;
13611;SDS011;6877;51.436;6.774;2023-11-21T12:09:31;62.28;;;27.55;;
13611;SDS011;6877;51.436;6.774;2023-11-21T12:12:03;61.47;;;25.63;;
13611;SDS011;6877;51.436;6.774;2023-11-21T12:14:31;46.08;;;23.17;;
13611;SDS011;6877;51.436;6.774;2023-11-21T12:17:03;60.42;;;24.15;;
13611;SDS011;6877;51.436;6.774;2023-11-21T12:19:30;51.00;;;22.10;;
13611;SDS011;6877;51.436;6.774;2023-11-21T12:21:57;56.40;;;25.30;;
13611;SDS011;6877;51.436;6.774;2023-11-21T12:24:25;56.25;;;24.70;;
13611;SDS011;6877;51.436;6.774;2023-11-21T12:26:57;58.17;;;25.45;;
13611;SDS011;6877;51.436;6.774;2023-11-21T12:29:23;60.88;;;25.75;;
13611;SDS011;6877;51.436;6.774;2023-11-21T12:31:50;62.35;;;28.23;;
13611;SDS011;6877;51.436;6.774;2023-11-21T12:34:21;57.47;;;24.23;;
13611;SDS011;6877;51.436;6.774;2023-11-21T12:36:49;65.13;;;26.00;;
13611;SDS011;6877;51.436;6.774;2023-11-21T12:39:16;66.93;;;24.48;;
13611;SDS011;6877;51.436;6.774;2023-11-21T12:41:48;57.13;;;23.45;;
13611;SDS011;6877;51.436;6.774;2023-11-21T12:44:20;51.15;;;22.20;;
13611;SDS011;6877;51.436;6.774;2023-11-21T12:46:53;51.50;;;18.92;;
13611;SDS011;6877;51.436;6.774;2023-11-21T12:49:26;33.60;;;16.30;;
13611;SDS011;6877;51.436;6.774;2023-11-21T12:51:54;35.15;;;14.82;;
13611;SDS011;6877;51.436;6.774;2023-11-21T12:54:25;28.05;;;12.52;;
13611;SDS011;6877;51.436;6.774;2023-11-21T12:56:52;32.08;;;13.00;;
13611;SDS011;6877;51.436;6.774;2023-11-21T12:59:20;30.88;;;12.55;;
13611;SDS011;6877;51.436;6.774;2023-11-21T13:01:47;18.40;;;10.75;;
13611;SDS011;6877;51.436;6.774;2023-11-21T13:04:13;20.83;;;10.68;;
13611;SDS011;6877;51.436;6.774;2023-11-21T13:06:40;27.63;;;11.07;;
13611;SDS011;6877;51.436;6.774;2023-11-21T13:09:07;25.73;;;11.75;;
13611;SDS011;6877;51.436;6.774;2023-11-21T13:11:37;23.67;;;11.80;;
13611;SDS011;6877;51.436;6.774;2023-11-21T13:14:05;26.35;;;11.85;;
13611;SDS011;6877;51.436;6.774;2023-11-21T13:16:36;21.33;;;10.98;;
13611;SDS011;6877;51.436;6.774;2023-11-21T13:19:05;22.10;;;10.10;;
13611;SDS011;6877;51.436;6.774;2023-11-21T13:21:31;21.13;;;10.10;;
13611;SDS011;6877;51.436;6.774;2023-11-21T13:24:03;18.65;;;9.13;;
13611;SDS011;6877;51.436;6.774;2023-11-21T13:26:30;21.15;;;7.50;;
13611;SDS011;6877;51.436;6.774;2023-11-21T13:29:02;21.63;;;9.00;;
13611;SDS011;6877;51.436;6.774;2023-11-21T13:31:31;17.58;;;8.30;;
13611;SDS011;6877;51.436;6.774;2023-11-21T13:33:58;20.50;;;8.90;;
13611;SDS011;6877;51.436;6.774;2023-11-21T13:36:36;17.10;;;9.32;;
13611;SDS011;6877;51.436;6.774;2023-11-21T13:39:02;22.73;;;9.02;;
13611;SDS011;6877;51.436;6.774;2023-11-21T13:41:33;21.15;;;10.60;;
13611;SDS011;6877;51.436;6.774;2023-11-21T13:44:05;22.38;;;9.45;;
13611;SDS011;6877;51.436;6.774;2023-11-21T13:46:52;25.52;;;9.40;;
13611;SDS011;6877;51.436;6.774;2023-11-21T13:49:19;20.00;;;9.55;;
13611;SDS011;6877;51.436;6.774;2023-11-21T13:51:47;21.73;;;9.50;;
13611;SDS011;6877;51.436;6.774;2023-11-21T13:54:18;16.88;;;9.27;;
13611;SDS011;6877;51.436;6.774;2023-11-21T13:56:46;21.10;;;10.27;;
13611;SDS011;6877;51.436;6.774;2023-11-21T13:59:13;20.65;;;10.35;;
13611;SDS011;6877;51.436;6.774;2023-11-21T14:01:49;27.58;;;12.68;;
13611;SDS011;6877;51.436;6.774;2023-11-21T14:04:24;18.95;;;8.93;;
13611;SDS011;6877;51.436;6.774;2023-11-21T14:06:56;26.05;;;10.70;;
13611;SDS011;6877;51.436;6.774;2023-11-21T14:09:30;21.98;;;10.30;;
13611;SDS011;6877;51.436;6.774;2023-11-21T14:12:02;23.27;;;10.90;;
13611;SDS011;6877;51.436;6.774;2023-11-21T14:14:37;20.45;;;10.15;;
13611;SDS011;6877;51.436;6.774;2023-11-21T14:17:05;23.77;;;12.70;;
13611;SDS011;6877;51.436;6.774;2023-11-21T14:19:33;25.92;;;11.60;;
13611;SDS011;6877;51.436;6.774;2023-11-21T14:22:07;18.40;;;9.98;;
13611;SDS011;6877;51.436;6.774;2023-11-21T14:24:35;27.73;;;11.82;;
13611;SDS011;6877;51.436;6.774;2023-11-21T14:27:03;24.13;;;11.45;;
13611;SDS011;6877;51.436;6.774;2023-11-21T14:29:34;22.92;;;11.43;;
13611;SDS011;6877;51.436;6.774;2023-11-21T14:32:10;22.50;;;10.10;;
13611;SDS011;6877;51.436;6.774;2023-11-21T14:34:38;26.80;;;12.82;;
13611;SDS011;6877;51.436;6.774;2023-11-21T14:37:04;26.80;;;11.50;;
13611;SDS011;6877;51.436;6.774;2023-11-21T14:39:31;26.63;;;11.23;;
13611;SDS011;6877;51.436;6.774;2023-11-21T14:42:01;25.50;;;11.98;;
13611;SDS011;6877;51.436;6.774;2023-11-21T14:44:34;22.58;;;10.93;;
13611;SDS011;6877;51.436;6.774;2023-11-21T14:47:09;22.92;;;10.95;;
13611;SDS011;6877;51.436;6.774;2023-11-21T14:49:42;25.88;;;12.38;;
13611;SDS011;6877;51.436;6.774;2023-11-21T14:52:19;24.45;;;11.95;;
13611;SDS011;6877;51.436;6.774;2023-11-21T14:55:09;21.85;;;9.57;;
13611;SDS011;6877;51.436;6.774;2023-11-21T14:58:18;29.42;;;10.77;;
13611;SDS011;6877;51.436;6.774;2023-11-21T15:00:55;22.75;;;11.35;;
13611;SDS011;6877;51.436;6.774;2023-11-21T15:03:24;20.08;;;9.15;;
13611;SDS011;6877;51.436;6.774;2023-11-21T15:06:03;22.05;;;9.98;;
13611;SDS011;6877;51.436;6.774;2023-11-21T15:08:48;23.77;;;10.93;;
13611;SDS011;6877;51.436;6.774;2023-11-21T15:11:41;25.50;;;9.02;;